sensor_id;sensor_type;location;lat;lon;timestamp;temperature;humidity
21744;DHT22;11034;48.556;9.342;2023-10-19T00:01:09;13.40;99.90
21744;DHT22;11034;48.556;9.342;2023-10-19T00:03:38;13.30;99.90
21744;DHT22;11034;48.556;9.342;2023-10-19T00:06:05;13.20;99.90
21744;DHT22;11034;48.556;9.342;2023-10-19T00:08:33;13.20;99.90
21744;DHT22;11034;48.556;9.342;2023-10-19T00:11:09;13.20;99.90
21744;DHT22;11034;48.556;9.342;2023-10-19T00:13:48;13.10;99.90
21744;DHT22;11034;48.556;9.342;2023-10-19T00:16:18;13.10;99.90
21744;DHT22;11034;48.556;9.342;2023-10-19T00:18:53;13.00;99.90
21744;DHT22;11034;48.556;9.342;2023-10-19T00:21:20;12.90;99.90
21744;DHT22;11034;48.556;9.342;2023-10-19T00:23:52;12.90;99.90
21744;DHT22;11034;48.556;9.342;2023-10-19T00:26:23;12.80;99.90
21744;DHT22;11034;48.556;9.342;2023-10-19T00:28:56;13.00;99.90
21744;DHT22;11034;48.556;9.342;2023-10-19T00:31:27;13.00;99.90
21744;DHT22;11034;48.556;9.342;2023-10-19T00:33:55;12.90;99.90
21744;DHT22;11034;48.556;9.342;2023-10-19T00:36:24;12.90;99.90
21744;DHT22;11034;48.556;9.342;2023-10-19T00:38:53;13.00;99.90
21744;DHT22;11034;48.556;9.342;2023-10-19T00:41:24;13.10;99.90
21744;DHT22;11034;48.556;9.342;2023-10-19T00:43:56;13.20;99.90
21744;DHT22;11034;48.556;9.342;2023-10-19T00:46:31;13.30;99.90
21744;DHT22;11034;48.556;9.342;2023-10-19T00:49:05;13.70;99.90
21744;DHT22;11034;48.556;9.342;2023-10-19T00:51:38;13.80;99.90
21744;DHT22;11034;48.556;9.342;2023-10-19T00:54:18;13.80;99.90
21744;DHT22;11034;48.556;9.342;2023-10-19T00:56:53;13.90;99.90
21744;DHT22;11034;48.556;9.342;2023-10-19T00:59:22;13.80;99.90
21744;DHT22;11034;48.556;9.342;2023-10-19T01:01:53;13.70;99.90
21744;DHT22;11034;48.556;9.342;2023-10-19T01:04:24;13.80;99.90
21744;DHT22;11034;48.556;9.342;2023-10-19T01:06:59;13.70;99.90
21744;DHT22;11034;48.556;9.342;2023-10-19T01:09:32;13.70;99.90
21744;DHT22;11034;48.556;9.342;2023-10-19T01:12:02;13.80;99.90
21744;DHT22;11034;48.556;9.342;2023-10-19T01:14:38;14.00;99.90
21744;DHT22;11034;48.556;9.342;2023-10-19T01:17:08;14.20;99.90
21744;DHT22;11034;48.556;9.342;2023-10-19T01:19:38;14.20;99.90
21744;DHT22;11034;48.556;9.342;2023-10-19T01:22:07;14.20;99.90
21744;DHT22;11034;48.556;9.342;2023-10-19T01:24:45;14.30;99.90
21744;DHT22;11034;48.556;9.342;2023-10-19T01:27:13;14.10;99.90
21744;DHT22;11034;48.556;9.342;2023-10-19T01:29:41;14.00;99.90
21744;DHT22;11034;48.556;9.342;2023-10-19T01:32:10;13.80;99.90
21744;DHT22;11034;48.556;9.342;2023-10-19T01:34:42;13.60;99.90
21744;DHT22;11034;48.556;9.342;2023-10-19T01:37:10;13.40;99.90
21744;DHT22;11034;48.556;9.342;2023-10-19T01:39:39;13.30;99.90
21744;DHT22;11034;48.556;9.342;2023-10-19T01:42:13;13.20;99.90
21744;DHT22;11034;48.556;9.342;2023-10-19T01:44:41;13.20;99.90
21744;DHT22;11034;48.556;9.342;2023-10-19T01:47:09;13.20;99.90
21744;DHT22;11034;48.556;9.342;2023-10-19T01:49:37;13.20;99.90
21744;DHT22;11034;48.556;9.342;2023-10-19T01:52:04;13.20;99.90
21744;DHT22;11034;48.556;9.342;2023-10-19T01:54:33;13.30;99.90
21744;DHT22;11034;48.556;9.342;2023-10-19T01:57:04;13.40;99.90
21744;DHT22;11034;48.556;9.342;2023-10-19T01:59:36;13.60;99.90
21744;DHT22;11034;48.556;9.342;2023-10-19T02:02:03;13.60;99.90
21744;DHT22;11034;48.556;9.342;2023-10-19T02:04:35;13.70;99.90
21744;DHT22;11034;48.556;9.342;2023-10-19T02:07:02;14.00;99.90
21744;DHT22;11034;48.556;9.342;2023-10-19T02:09:30;14.10;99.90
21744;DHT22;11034;48.556;9.342;2023-10-19T02:11:59;14.10;99.90
21744;DHT22;11034;48.556;9.342;2023-10-19T02:14:31;14.20;99.90
21744;DHT22;11034;48.556;9.342;2023-10-19T02:17:01;14.30;99.90
21744;DHT22;11034;48.556;9.342;2023-10-19T02:19:31;14.30;99.90
21744;DHT22;11034;48.556;9.342;2023-10-19T02:22:01;14.40;99.90
21744;DHT22;11034;48.556;9.342;2023-10-19T02:24:30;14.70;99.90
21744;DHT22;11034;48.556;9.342;2023-10-19T02:26:59;14.70;99.90
21744;DHT22;11034;48.556;9.342;2023-10-19T02:29:28;14.60;99.90
21744;DHT22;11034;48.556;9.342;2023-10-19T02:31:55;14.50;99.90
21744;DHT22;11034;48.556;9.342;2023-10-19T02:34:25;14.50;99.90
21744;DHT22;11034;48.556;9.342;2023-10-19T02:36:53;14.40;99.90
21744;DHT22;11034;48.556;9.342;2023-10-19T02:39:21;14.60;99.90
21744;DHT22;11034;48.556;9.342;2023-10-19T02:41:54;14.60;99.90
21744;DHT22;11034;48.556;9.342;2023-10-19T02:44:23;14.70;99.90
21744;DHT22;11034;48.556;9.342;2023-10-19T02:46:53;14.80;99.90
21744;DHT22;11034;48.556;9.342;2023-10-19T02:49:28;14.70;99.90
21744;DHT22;11034;48.556;9.342;2023-10-19T02:51:57;14.80;99.90
21744;DHT22;11034;48.556;9.342;2023-10-19T02:54:31;14.80;99.90
21744;DHT22;11034;48.556;9.342;2023-10-19T02:57:00;14.70;99.90
21744;DHT22;11034;48.556;9.342;2023-10-19T02:59:33;14.70;99.90
21744;DHT22;11034;48.556;9.342;2023-10-19T03:02:01;14.50;99.90
21744;DHT22;11034;48.556;9.342;2023-10-19T03:04:36;14.30;99.90
21744;DHT22;11034;48.556;9.342;2023-10-19T03:07:03;14.20;99.90
21744;DHT22;11034;48.556;9.342;2023-10-19T03:09:31;14.10;99.90
21744;DHT22;11034;48.556;9.342;2023-10-19T03:12:03;14.00;99.90
21744;DHT22;11034;48.556;9.342;2023-10-19T03:14:36;13.80;99.90
21744;DHT22;11034;48.556;9.342;2023-10-19T03:17:04;13.70;99.90
21744;DHT22;11034;48.556;9.342;2023-10-19T03:19:37;13.60;99.90
21744;DHT22;11034;48.556;9.342;2023-10-19T03:22:06;13.60;99.90
21744;DHT22;11034;48.556;9.342;2023-10-19T03:24:36;13.50;99.90
21744;DHT22;11034;48.556;9.342;2023-10-19T03:27:08;13.40;99.90
21744;DHT22;11034;48.556;9.342;2023-10-19T03:29:40;13.30;99.90
21744;DHT22;11034;48.556;9.342;2023-10-19T03:32:13;13.30;99.90
21744;DHT22;11034;48.556;9.342;2023-10-19T03:34:44;13.30;99.90
21744;DHT22;11034;48.556;9.342;2023-10-19T03:37:17;13.10;99.90
21744;DHT22;11034;48.556;9.342;2023-10-19T03:39:47;13.20;99.90
21744;DHT22;11034;48.556;9.342;2023-10-19T03:42:16;13.20;99.90
21744;DHT22;11034;48.556;9.342;2023-10-19T03:44:44;13.20;99.90
21744;DHT22;11034;48.556;9.342;2023-10-19T03:47:20;13.10;99.90
21744;DHT22;11034;48.556;9.342;2023-10-19T03:49:56;13.00;99.90
21744;DHT22;11034;48.556;9.342;2023-10-19T03:52:26;13.00;99.90
21744;DHT22;11034;48.556;9.342;2023-10-19T03:54:57;12.90;99.90
21744;DHT22;11034;48.556;9.342;2023-10-19T03:57:25;12.90;99.90
21744;DHT22;11034;48.556;9.342;2023-10-19T03:59:56;13.00;99.90
21744;DHT22;11034;48.556;9.342;2023-10-19T04:02:26;12.90;99.90
21744;DHT22;11034;48.556;9.342;2023-10-19T04:04:57;13.00;99.90
21744;DHT22;11034;48.556;9.342;2023-10-19T04:07:28;13.10;99.90
21744;DHT22;11034;48.556;9.342;2023-10-19T04:09:58;13.10;99.90
21744;DHT22;11034;48.556;9.342;2023-10-19T04:12:38;13.20;99.90
21744;DHT22;11034;48.556;9.342;2023-10-19T04:15:10;13.30;99.90
21744;DHT22;11034;48.556;9.342;2023-10-19T04:17:39;13.40;99.90
21744;DHT22;11034;48.556;9.342;2023-10-19T04:20:11;13.40;99.90
21744;DHT22;11034;48.556;9.342;2023-10-19T04:22:55;13.50;99.90
21744;DHT22;11034;48.556;9.342;2023-10-19T04:25:25;13.60;99.90
21744;DHT22;11034;48.556;9.342;2023-10-19T04:27:54;13.70;99.90
21744;DHT22;11034;48.556;9.342;2023-10-19T04:30:24;13.70;99.90
21744;DHT22;11034;48.556;9.342;2023-10-19T04:32:53;13.80;99.90
21744;DHT22;11034;48.556;9.342;2023-10-19T04:35:26;13.80;99.90
21744;DHT22;11034;48.556;9.342;2023-10-19T04:37:57;13.90;99.90
21744;DHT22;11034;48.556;9.342;2023-10-19T04:40:27;13.90;99.90
21744;DHT22;11034;48.556;9.342;2023-10-19T04:42:55;13.90;99.90
21744;DHT22;11034;48.556;9.342;2023-10-19T04:45:24;13.90;99.90
21744;DHT22;11034;48.556;9.342;2023-10-19T04:47:52;13.90;99.90
21744;DHT22;11034;48.556;9.342;2023-10-19T04:50:22;14.00;99.90
21744;DHT22;11034;48.556;9.342;2023-10-19T04:52:51;14.10;99.90
21744;DHT22;11034;48.556;9.342;2023-10-19T05:03:33;14.10;99.90
21744;DHT22;11034;48.556;9.342;2023-10-19T05:06:02;14.10;99.90
21744;DHT22;11034;48.556;9.342;2023-10-19T05:08:32;14.10;99.90
21744;DHT22;11034;48.556;9.342;2023-10-19T05:11:03;14.10;99.90
21744;DHT22;11034;48.556;9.342;2023-10-19T05:13:32;14.00;99.90
21744;DHT22;11034;48.556;9.342;2023-10-19T05:16:04;14.10;99.90
21744;DHT22;11034;48.556;9.342;2023-10-19T05:18:33;14.10;99.90
21744;DHT22;11034;48.556;9.342;2023-10-19T05:23:45;14.10;99.90
21744;DHT22;11034;48.556;9.342;2023-10-19T05:26:13;14.10;99.90
21744;DHT22;11034;48.556;9.342;2023-10-19T05:28:44;14.10;99.90
21744;DHT22;11034;48.556;9.342;2023-10-19T05:31:14;14.10;99.90
21744;DHT22;11034;48.556;9.342;2023-10-19T05:33:42;14.10;99.90
21744;DHT22;11034;48.556;9.342;2023-10-19T05:36:10;14.00;99.90
21744;DHT22;11034;48.556;9.342;2023-10-19T05:38:41;14.10;99.90
21744;DHT22;11034;48.556;9.342;2023-10-19T05:41:15;14.20;99.90
21744;DHT22;11034;48.556;9.342;2023-10-19T05:43:45;14.20;99.90
21744;DHT22;11034;48.556;9.342;2023-10-19T05:46:14;14.20;99.90
21744;DHT22;11034;48.556;9.342;2023-10-19T05:48:45;14.20;99.90
21744;DHT22;11034;48.556;9.342;2023-10-19T05:51:13;14.20;99.90
21744;DHT22;11034;48.556;9.342;2023-10-19T05:53:42;14.20;99.90
21744;DHT22;11034;48.556;9.342;2023-10-19T05:56:11;14.10;99.90
21744;DHT22;11034;48.556;9.342;2023-10-19T05:58:40;14.20;99.90
21744;DHT22;11034;48.556;9.342;2023-10-19T06:01:09;14.30;99.90
21744;DHT22;11034;48.556;9.342;2023-10-19T06:03:37;14.40;99.90
21744;DHT22;11034;48.556;9.342;2023-10-19T06:06:06;14.60;99.90
21744;DHT22;11034;48.556;9.342;2023-10-19T06:08:34;14.80;99.90
21744;DHT22;11034;48.556;9.342;2023-10-19T06:11:04;14.70;99.90
21744;DHT22;11034;48.556;9.342;2023-10-19T06:13:34;14.70;99.90
21744;DHT22;11034;48.556;9.342;2023-10-19T06:16:04;14.60;99.90
21744;DHT22;11034;48.556;9.342;2023-10-19T06:18:32;14.40;99.90
21744;DHT22;11034;48.556;9.342;2023-10-19T06:21:01;14.30;99.90
21744;DHT22;11034;48.556;9.342;2023-10-19T06:23:29;14.50;99.90
21744;DHT22;11034;48.556;9.342;2023-10-19T06:25:58;14.70;99.90
21744;DHT22;11034;48.556;9.342;2023-10-19T06:28:31;14.90;99.90
21744;DHT22;11034;48.556;9.342;2023-10-19T06:31:02;15.00;99.90
21744;DHT22;11034;48.556;9.342;2023-10-19T06:33:31;15.30;99.90
21744;DHT22;11034;48.556;9.342;2023-10-19T06:36:00;15.30;99.90
21744;DHT22;11034;48.556;9.342;2023-10-19T06:38:30;15.40;99.90
21744;DHT22;11034;48.556;9.342;2023-10-19T06:40:59;15.40;99.90
21744;DHT22;11034;48.556;9.342;2023-10-19T06:43:29;15.40;99.90
21744;DHT22;11034;48.556;9.342;2023-10-19T06:46:00;15.30;99.90
21744;DHT22;11034;48.556;9.342;2023-10-19T06:48:29;15.20;99.90
21744;DHT22;11034;48.556;9.342;2023-10-19T06:50:57;15.10;99.90
21744;DHT22;11034;48.556;9.342;2023-10-19T06:53:27;15.00;99.90
21744;DHT22;11034;48.556;9.342;2023-10-19T06:55:55;14.90;99.90
21744;DHT22;11034;48.556;9.342;2023-10-19T06:58:23;14.80;99.90
21744;DHT22;11034;48.556;9.342;2023-10-19T07:00:53;14.80;99.90
21744;DHT22;11034;48.556;9.342;2023-10-19T07:03:26;14.70;99.90
21744;DHT22;11034;48.556;9.342;2023-10-19T07:05:57;14.60;99.90
21744;DHT22;11034;48.556;9.342;2023-10-19T07:08:26;14.50;99.90
21744;DHT22;11034;48.556;9.342;2023-10-19T07:10:55;14.50;99.90
21744;DHT22;11034;48.556;9.342;2023-10-19T07:13:26;14.40;99.90
21744;DHT22;11034;48.556;9.342;2023-10-19T07:15:58;14.40;99.90
21744;DHT22;11034;48.556;9.342;2023-10-19T07:18:26;14.30;99.90
21744;DHT22;11034;48.556;9.342;2023-10-19T07:20:58;14.30;99.90
21744;DHT22;11034;48.556;9.342;2023-10-19T07:23:30;14.30;99.90
21744;DHT22;11034;48.556;9.342;2023-10-19T07:26:04;14.20;99.90
21744;DHT22;11034;48.556;9.342;2023-10-19T07:28:33;14.10;99.90
21744;DHT22;11034;48.556;9.342;2023-10-19T07:31:05;14.10;99.90
21744;DHT22;11034;48.556;9.342;2023-10-19T07:33:39;14.10;99.90
21744;DHT22;11034;48.556;9.342;2023-10-19T07:36:14;14.10;99.90
21744;DHT22;11034;48.556;9.342;2023-10-19T07:38:42;14.20;99.90
21744;DHT22;11034;48.556;9.342;2023-10-19T07:41:12;14.30;99.90
21744;DHT22;11034;48.556;9.342;2023-10-19T07:43:40;14.50;99.90
21744;DHT22;11034;48.556;9.342;2023-10-19T07:46:09;14.60;99.90
21744;DHT22;11034;48.556;9.342;2023-10-19T07:48:38;14.70;99.90
21744;DHT22;11034;48.556;9.342;2023-10-19T07:51:08;14.80;99.90
21744;DHT22;11034;48.556;9.342;2023-10-19T07:53:39;14.90;99.90
21744;DHT22;11034;48.556;9.342;2023-10-19T07:56:07;14.90;99.90
21744;DHT22;11034;48.556;9.342;2023-10-19T07:58:35;15.00;99.90
21744;DHT22;11034;48.556;9.342;2023-10-19T08:01:04;15.10;99.90
21744;DHT22;11034;48.556;9.342;2023-10-19T08:03:32;15.20;99.90
21744;DHT22;11034;48.556;9.342;2023-10-19T08:06:02;15.30;99.90
21744;DHT22;11034;48.556;9.342;2023-10-19T08:08:33;15.50;99.90
21744;DHT22;11034;48.556;9.342;2023-10-19T08:11:03;15.60;99.90
21744;DHT22;11034;48.556;9.342;2023-10-19T08:13:32;15.80;99.90
21744;DHT22;11034;48.556;9.342;2023-10-19T08:16:01;15.90;99.90
21744;DHT22;11034;48.556;9.342;2023-10-19T08:18:31;15.90;99.90
21744;DHT22;11034;48.556;9.342;2023-10-19T08:20:59;15.80;99.90
21744;DHT22;11034;48.556;9.342;2023-10-19T08:23:27;15.60;99.90
21744;DHT22;11034;48.556;9.342;2023-10-19T08:25:55;15.30;99.90
21744;DHT22;11034;48.556;9.342;2023-10-19T08:28:25;15.10;99.90
21744;DHT22;11034;48.556;9.342;2023-10-19T08:30:54;15.10;99.90
21744;DHT22;11034;48.556;9.342;2023-10-19T08:33:28;15.10;99.90
21744;DHT22;11034;48.556;9.342;2023-10-19T08:35:57;15.10;99.90
21744;DHT22;11034;48.556;9.342;2023-10-19T08:38:27;15.10;99.90
21744;DHT22;11034;48.556;9.342;2023-10-19T08:40:56;15.30;99.90
21744;DHT22;11034;48.556;9.342;2023-10-19T08:43:26;15.30;99.90
21744;DHT22;11034;48.556;9.342;2023-10-19T08:45:55;15.50;99.90
21744;DHT22;11034;48.556;9.342;2023-10-19T08:48:24;15.60;99.90
21744;DHT22;11034;48.556;9.342;2023-10-19T08:50:52;15.50;99.90
21744;DHT22;11034;48.556;9.342;2023-10-19T08:53:24;15.60;99.90
21744;DHT22;11034;48.556;9.342;2023-10-19T08:55:52;15.60;99.90
21744;DHT22;11034;48.556;9.342;2023-10-19T08:58:21;15.60;99.90
21744;DHT22;11034;48.556;9.342;2023-10-19T09:00:51;15.70;99.90
21744;DHT22;11034;48.556;9.342;2023-10-19T09:03:23;15.60;99.90
21744;DHT22;11034;48.556;9.342;2023-10-19T09:05:53;15.70;99.90
21744;DHT22;11034;48.556;9.342;2023-10-19T09:08:23;15.70;99.90
21744;DHT22;11034;48.556;9.342;2023-10-19T09:10:52;15.60;99.90
21744;DHT22;11034;48.556;9.342;2023-10-19T09:13:22;15.40;99.90
21744;DHT22;11034;48.556;9.342;2023-10-19T09:15:53;15.50;99.90
21744;DHT22;11034;48.556;9.342;2023-10-19T09:18:24;15.40;99.90
21744;DHT22;11034;48.556;9.342;2023-10-19T09:20:58;15.40;99.90
21744;DHT22;11034;48.556;9.342;2023-10-19T09:23:35;15.70;99.90
21744;DHT22;11034;48.556;9.342;2023-10-19T09:26:04;15.80;99.90
21744;DHT22;11034;48.556;9.342;2023-10-19T09:28:42;16.00;99.90
21744;DHT22;11034;48.556;9.342;2023-10-19T09:31:12;16.10;99.90
21744;DHT22;11034;48.556;9.342;2023-10-19T09:33:44;16.20;99.90
21744;DHT22;11034;48.556;9.342;2023-10-19T09:36:13;16.20;99.90
21744;DHT22;11034;48.556;9.342;2023-10-19T09:38:45;16.30;99.90
21744;DHT22;11034;48.556;9.342;2023-10-19T09:41:17;16.40;99.90
21744;DHT22;11034;48.556;9.342;2023-10-19T09:43:46;16.50;99.90
21744;DHT22;11034;48.556;9.342;2023-10-19T09:46:21;16.50;99.90
21744;DHT22;11034;48.556;9.342;2023-10-19T09:48:50;16.30;99.90
21744;DHT22;11034;48.556;9.342;2023-10-19T09:51:19;16.10;99.90
21744;DHT22;11034;48.556;9.342;2023-10-19T09:53:50;16.10;99.90
21744;DHT22;11034;48.556;9.342;2023-10-19T09:56:26;16.10;99.90
21744;DHT22;11034;48.556;9.342;2023-10-19T09:58:59;16.10;99.90
21744;DHT22;11034;48.556;9.342;2023-10-19T10:02:03;16.00;99.90
21744;DHT22;11034;48.556;9.342;2023-10-19T10:04:33;15.90;99.90
21744;DHT22;11034;48.556;9.342;2023-10-19T10:07:05;15.70;99.90
21744;DHT22;11034;48.556;9.342;2023-10-19T10:09:36;15.70;99.90
21744;DHT22;11034;48.556;9.342;2023-10-19T10:12:18;15.60;99.90
21744;DHT22;11034;48.556;9.342;2023-10-19T10:14:59;15.80;99.90
21744;DHT22;11034;48.556;9.342;2023-10-19T10:17:33;15.80;99.90
21744;DHT22;11034;48.556;9.342;2023-10-19T10:20:29;15.90;99.90
21744;DHT22;11034;48.556;9.342;2023-10-19T10:23:18;16.00;99.90
21744;DHT22;11034;48.556;9.342;2023-10-19T10:25:52;16.10;99.90
21744;DHT22;11034;48.556;9.342;2023-10-19T10:28:21;16.10;99.90
21744;DHT22;11034;48.556;9.342;2023-10-19T10:31:23;16.10;99.90
21744;DHT22;11034;48.556;9.342;2023-10-19T10:33:54;16.10;99.90
21744;DHT22;11034;48.556;9.342;2023-10-19T10:36:22;16.10;99.90
21744;DHT22;11034;48.556;9.342;2023-10-19T10:39:01;16.00;99.90
21744;DHT22;11034;48.556;9.342;2023-10-19T10:41:31;16.10;99.90
21744;DHT22;11034;48.556;9.342;2023-10-19T10:44:00;16.30;99.90
21744;DHT22;11034;48.556;9.342;2023-10-19T10:46:28;16.50;99.90
21744;DHT22;11034;48.556;9.342;2023-10-19T10:49:09;16.60;99.90
21744;DHT22;11034;48.556;9.342;2023-10-19T10:51:39;16.70;99.90
21744;DHT22;11034;48.556;9.342;2023-10-19T10:54:08;16.80;99.90
21744;DHT22;11034;48.556;9.342;2023-10-19T10:56:40;16.90;99.90
21744;DHT22;11034;48.556;9.342;2023-10-19T10:59:18;16.80;99.90
21744;DHT22;11034;48.556;9.342;2023-10-19T11:01:46;16.80;99.90
21744;DHT22;11034;48.556;9.342;2023-10-19T11:04:17;16.80;99.90
21744;DHT22;11034;48.556;9.342;2023-10-19T11:06:51;16.70;99.90
21744;DHT22;11034;48.556;9.342;2023-10-19T11:09:22;16.50;99.90
21744;DHT22;11034;48.556;9.342;2023-10-19T11:11:51;16.30;99.90
21744;DHT22;11034;48.556;9.342;2023-10-19T11:14:20;16.30;99.90
21744;DHT22;11034;48.556;9.342;2023-10-19T11:16:52;16.00;99.90
21744;DHT22;11034;48.556;9.342;2023-10-19T11:19:41;15.90;99.90
21744;DHT22;11034;48.556;9.342;2023-10-19T11:22:11;15.70;99.90
21744;DHT22;11034;48.556;9.342;2023-10-19T11:24:39;15.60;99.90
21744;DHT22;11034;48.556;9.342;2023-10-19T11:27:28;15.50;99.90
21744;DHT22;11034;48.556;9.342;2023-10-19T11:33:54;15.30;99.90
21744;DHT22;11034;48.556;9.342;2023-10-19T11:36:31;15.20;99.90
21744;DHT22;11034;48.556;9.342;2023-10-19T11:39:07;15.10;99.90
21744;DHT22;11034;48.556;9.342;2023-10-19T12:00:29;15.20;99.90
21744;DHT22;11034;48.556;9.342;2023-10-19T12:03:06;15.10;99.90
21744;DHT22;11034;48.556;9.342;2023-10-19T12:09:36;15.20;99.90
21744;DHT22;11034;48.556;9.342;2023-10-19T12:12:11;15.20;99.90
21744;DHT22;11034;48.556;9.342;2023-10-19T12:15:30;15.30;99.90
21744;DHT22;11034;48.556;9.342;2023-10-19T12:18:01;15.40;99.90
21744;DHT22;11034;48.556;9.342;2023-10-19T12:20:58;15.40;99.90
21744;DHT22;11034;48.556;9.342;2023-10-19T12:23:53;15.40;99.90
21744;DHT22;11034;48.556;9.342;2023-10-19T12:26:26;15.30;99.90
21744;DHT22;11034;48.556;9.342;2023-10-19T12:29:15;15.20;99.90
21744;DHT22;11034;48.556;9.342;2023-10-19T12:32:20;15.20;99.90
21744;DHT22;11034;48.556;9.342;2023-10-19T12:35:06;15.10;99.90
21744;DHT22;11034;48.556;9.342;2023-10-19T12:37:45;15.10;99.90
21744;DHT22;11034;48.556;9.342;2023-10-19T12:40:20;15.10;99.90
21744;DHT22;11034;48.556;9.342;2023-10-19T12:43:04;15.00;99.90
21744;DHT22;11034;48.556;9.342;2023-10-19T12:45:37;15.00;99.90
21744;DHT22;11034;48.556;9.342;2023-10-19T12:48:16;15.10;99.90
21744;DHT22;11034;48.556;9.342;2023-10-19T12:50:48;15.10;99.90
21744;DHT22;11034;48.556;9.342;2023-10-19T12:53:17;15.10;99.90
21744;DHT22;11034;48.556;9.342;2023-10-19T12:55:45;15.10;99.90
21744;DHT22;11034;48.556;9.342;2023-10-19T12:58:14;15.10;99.90
21744;DHT22;11034;48.556;9.342;2023-10-19T13:00:47;15.10;99.90
21744;DHT22;11034;48.556;9.342;2023-10-19T13:03:18;15.10;99.90
21744;DHT22;11034;48.556;9.342;2023-10-19T13:05:49;15.20;99.90
21744;DHT22;11034;48.556;9.342;2023-10-19T13:08:18;15.20;99.90
21744;DHT22;11034;48.556;9.342;2023-10-19T13:10:47;15.50;99.90
21744;DHT22;11034;48.556;9.342;2023-10-19T13:13:19;15.90;99.90
21744;DHT22;11034;48.556;9.342;2023-10-19T13:15:51;16.20;99.90
21744;DHT22;11034;48.556;9.342;2023-10-19T13:18:22;16.40;99.90
21744;DHT22;11034;48.556;9.342;2023-10-19T13:20:55;16.50;99.90
21744;DHT22;11034;48.556;9.342;2023-10-19T13:23:24;16.50;99.90
21744;DHT22;11034;48.556;9.342;2023-10-19T13:25:55;16.50;99.90
21744;DHT22;11034;48.556;9.342;2023-10-19T13:28:39;16.40;99.90
21744;DHT22;11034;48.556;9.342;2023-10-19T13:31:10;16.40;99.90
21744;DHT22;11034;48.556;9.342;2023-10-19T13:33:52;16.30;99.90
21744;DHT22;11034;48.556;9.342;2023-10-19T13:36:21;16.40;99.90
21744;DHT22;11034;48.556;9.342;2023-10-19T13:38:50;16.30;99.90
21744;DHT22;11034;48.556;9.342;2023-10-19T13:41:19;16.20;99.90
21744;DHT22;11034;48.556;9.342;2023-10-19T13:43:47;16.20;99.90
21744;DHT22;11034;48.556;9.342;2023-10-19T13:46:16;16.10;99.90
21744;DHT22;11034;48.556;9.342;2023-10-19T13:48:44;16.10;99.90
21744;DHT22;11034;48.556;9.342;2023-10-19T13:51:17;16.00;99.90
21744;DHT22;11034;48.556;9.342;2023-10-19T13:53:46;16.00;99.90
21744;DHT22;11034;48.556;9.342;2023-10-19T13:56:16;16.00;99.90
21744;DHT22;11034;48.556;9.342;2023-10-19T13:58:45;16.00;99.90
21744;DHT22;11034;48.556;9.342;2023-10-19T14:01:14;16.00;99.90
21744;DHT22;11034;48.556;9.342;2023-10-19T14:03:44;15.90;99.90
21744;DHT22;11034;48.556;9.342;2023-10-19T14:06:14;15.80;99.90
21744;DHT22;11034;48.556;9.342;2023-10-19T14:08:45;15.80;99.90
21744;DHT22;11034;48.556;9.342;2023-10-19T14:11:14;15.80;99.90
21744;DHT22;11034;48.556;9.342;2023-10-19T14:13:43;15.80;99.90
21744;DHT22;11034;48.556;9.342;2023-10-19T14:16:15;15.80;99.90
21744;DHT22;11034;48.556;9.342;2023-10-19T14:18:46;15.80;99.90
21744;DHT22;11034;48.556;9.342;2023-10-19T14:21:29;15.90;99.90
21744;DHT22;11034;48.556;9.342;2023-10-19T14:24:00;15.90;99.90
21744;DHT22;11034;48.556;9.342;2023-10-19T14:26:38;15.90;99.90
21744;DHT22;11034;48.556;9.342;2023-10-19T14:29:09;15.90;99.90
21744;DHT22;11034;48.556;9.342;2023-10-19T14:31:39;15.90;99.90
21744;DHT22;11034;48.556;9.342;2023-10-19T14:34:08;15.90;99.90
21744;DHT22;11034;48.556;9.342;2023-10-19T14:36:54;15.90;99.90
21744;DHT22;11034;48.556;9.342;2023-10-19T14:39:29;15.80;99.90
21744;DHT22;11034;48.556;9.342;2023-10-19T14:42:15;15.70;99.90
21744;DHT22;11034;48.556;9.342;2023-10-19T14:44:55;15.60;99.90
21744;DHT22;11034;48.556;9.342;2023-10-19T14:47:46;15.50;99.90
21744;DHT22;11034;48.556;9.342;2023-10-19T14:50:16;15.50;99.90
21744;DHT22;11034;48.556;9.342;2023-10-19T14:52:53;15.40;99.90
21744;DHT22;11034;48.556;9.342;2023-10-19T14:55:26;15.40;99.90
21744;DHT22;11034;48.556;9.342;2023-10-19T14:57:55;15.40;99.90
21744;DHT22;11034;48.556;9.342;2023-10-19T15:00:27;15.30;99.90
21744;DHT22;11034;48.556;9.342;2023-10-19T15:03:07;15.20;99.90
21744;DHT22;11034;48.556;9.342;2023-10-19T15:12:39;15.20;99.90
21744;DHT22;11034;48.556;9.342;2023-10-19T15:15:11;15.20;99.90
21744;DHT22;11034;48.556;9.342;2023-10-19T15:17:40;15.30;99.90
21744;DHT22;11034;48.556;9.342;2023-10-19T15:20:11;15.30;99.90
21744;DHT22;11034;48.556;9.342;2023-10-19T15:22:42;15.40;99.90
21744;DHT22;11034;48.556;9.342;2023-10-19T15:25:11;15.40;99.90
21744;DHT22;11034;48.556;9.342;2023-10-19T15:27:42;15.50;99.90
21744;DHT22;11034;48.556;9.342;2023-10-19T15:30:11;15.50;99.90
21744;DHT22;11034;48.556;9.342;2023-10-19T15:32:40;15.50;99.90
21744;DHT22;11034;48.556;9.342;2023-10-19T15:35:10;15.50;99.90
21744;DHT22;11034;48.556;9.342;2023-10-19T15:37:38;15.50;99.90
21744;DHT22;11034;48.556;9.342;2023-10-19T15:40:07;15.40;99.90
21744;DHT22;11034;48.556;9.342;2023-10-19T15:42:41;15.40;99.90
21744;DHT22;11034;48.556;9.342;2023-10-19T15:45:10;15.30;99.90
21744;DHT22;11034;48.556;9.342;2023-10-19T15:47:39;15.20;99.90
21744;DHT22;11034;48.556;9.342;2023-10-19T15:50:08;15.20;99.90
21744;DHT22;11034;48.556;9.342;2023-10-19T15:52:36;15.10;99.90
21744;DHT22;11034;48.556;9.342;2023-10-19T15:55:09;15.10;99.90
21744;DHT22;11034;48.556;9.342;2023-10-19T15:57:42;15.00;99.90
21744;DHT22;11034;48.556;9.342;2023-10-19T16:00:16;14.90;99.90
21744;DHT22;11034;48.556;9.342;2023-10-19T16:02:44;14.80;99.90
21744;DHT22;11034;48.556;9.342;2023-10-19T16:05:13;14.80;99.90
21744;DHT22;11034;48.556;9.342;2023-10-19T16:07:49;14.80;99.90
21744;DHT22;11034;48.556;9.342;2023-10-19T16:10:23;14.80;99.90
21744;DHT22;11034;48.556;9.342;2023-10-19T16:12:56;14.80;99.90
21744;DHT22;11034;48.556;9.342;2023-10-19T16:15:24;14.90;99.90
21744;DHT22;11034;48.556;9.342;2023-10-19T16:17:53;15.00;99.90
21744;DHT22;11034;48.556;9.342;2023-10-19T16:20:21;14.90;99.90
21744;DHT22;11034;48.556;9.342;2023-10-19T16:22:49;14.90;99.90
21744;DHT22;11034;48.556;9.342;2023-10-19T16:25:24;14.90;99.90
21744;DHT22;11034;48.556;9.342;2023-10-19T16:28:12;14.80;99.90
21744;DHT22;11034;48.556;9.342;2023-10-19T16:30:46;14.80;99.90
21744;DHT22;11034;48.556;9.342;2023-10-19T16:33:20;14.80;99.90
21744;DHT22;11034;48.556;9.342;2023-10-19T16:35:59;14.80;99.90
21744;DHT22;11034;48.556;9.342;2023-10-19T16:39:15;14.80;99.90
21744;DHT22;11034;48.556;9.342;2023-10-19T16:41:50;14.90;99.90
21744;DHT22;11034;48.556;9.342;2023-10-19T16:44:21;14.80;99.90